createdAt,value
2022-09-12T00:01:27.070Z,13.05
2022-09-12T00:03:58.187Z,13.10
2022-09-12T00:06:28.738Z,13.08
2022-09-12T00:08:58.794Z,13.07
2022-09-12T00:11:27.278Z,13.06
2022-09-12T00:13:57.684Z,12.99
2022-09-12T00:16:28.721Z,12.94
2022-09-12T00:18:57.942Z,12.92
2022-09-12T00:21:34.261Z,12.89
2022-09-12T00:24:02.492Z,12.87
2022-09-12T00:26:30.706Z,12.84
2022-09-12T00:28:58.763Z,12.76
2022-09-12T00:31:27.825Z,12.76
2022-09-12T00:34:01.008Z,12.79
2022-09-12T00:36:30.378Z,12.74
2022-09-12T00:38:58.402Z,12.70
2022-09-12T00:41:28.351Z,12.66
2022-09-12T00:43:58.506Z,12.64
2022-09-12T00:46:37.020Z,12.62
2022-09-12T00:49:26.175Z,12.62
2022-09-12T00:52:04.700Z,12.60
2022-09-12T00:54:37.447Z,12.55
2022-09-12T00:57:17.501Z,12.57
2022-09-12T01:00:01.596Z,12.59
2022-09-12T01:02:30.006Z,12.55
2022-09-12T01:05:04.810Z,12.47
2022-09-12T01:07:36.837Z,12.42
2022-09-12T01:10:09.998Z,12.40
2022-09-12T01:12:40.659Z,12.38
2022-09-12T01:15:12.436Z,12.35
2022-09-12T01:18:01.909Z,12.31
2022-09-12T01:20:52.121Z,12.40
2022-09-12T01:24:00.277Z,12.33
2022-09-12T01:26:54.730Z,12.29
2022-09-12T01:29:42.195Z,12.25
2022-09-12T01:32:24.288Z,12.25
2022-09-12T01:34:58.896Z,12.22
2022-09-12T01:37:34.202Z,12.22
2022-09-12T01:40:08.933Z,12.21
2022-09-12T01:42:48.278Z,12.17
2022-09-12T01:45:21.799Z,12.15
2022-09-12T01:47:58.380Z,12.18
2022-09-12T01:50:29.443Z,12.12
2022-09-12T01:53:06.136Z,12.14
2022-09-12T01:55:41.426Z,12.09
2022-09-12T01:58:19.998Z,12.07
2022-09-12T02:01:00.911Z,12.01
2022-09-12T02:04:09.819Z,11.99
2022-09-12T02:06:52.736Z,11.95
2022-09-12T02:09:39.697Z,12.00
2022-09-12T02:12:22.068Z,12.01
2022-09-12T02:17:55.223Z,11.90
2022-09-12T02:20:51.790Z,11.88
2022-09-12T02:24:00.204Z,11.82
2022-09-12T02:26:42.711Z,11.78
2022-09-12T02:29:11.395Z,11.77
2022-09-12T02:31:47.186Z,11.81
2022-09-12T02:34:28.908Z,11.78
2022-09-12T02:37:16.667Z,11.75
2022-09-12T02:39:52.317Z,11.74
2022-09-12T02:42:27.873Z,11.65
2022-09-12T02:45:07.417Z,11.68
2022-09-12T02:47:40.713Z,11.72
2022-09-12T02:50:12.904Z,11.66
2022-09-12T02:52:43.304Z,11.64
2022-09-12T02:55:12.803Z,11.61
2022-09-12T02:57:46.743Z,11.56
2022-09-12T03:00:15.367Z,11.57
2022-09-12T03:02:59.758Z,11.54
2022-09-12T03:05:33.452Z,11.52
2022-09-12T03:08:23.643Z,11.47
2022-09-12T03:11:24.580Z,11.42
2022-09-12T03:14:02.961Z,11.37
2022-09-12T03:16:50.227Z,11.35
2022-09-12T03:19:26.980Z,11.29
2022-09-12T03:22:09.490Z,11.28
2022-09-12T03:24:45.143Z,11.27
2022-09-12T03:27:17.482Z,11.23
2022-09-12T03:29:51.525Z,11.24
2022-09-12T03:32:21.805Z,11.29
2022-09-12T03:34:49.869Z,11.29
2022-09-12T03:37:17.693Z,11.29
2022-09-12T03:39:46.848Z,11.25
2022-09-12T03:42:14.686Z,11.22
2022-09-12T03:44:42.884Z,11.17
2022-09-12T03:47:27.507Z,11.13
2022-09-12T03:50:15.176Z,11.11
2022-09-12T03:53:17.550Z,11.12
2022-09-12T03:56:19.240Z,11.05
2022-09-12T03:58:47.248Z,11.04
2022-09-12T04:01:27.816Z,11.02
2022-09-12T04:03:55.580Z,11.04
2022-09-12T04:06:24.395Z,11.00
2022-09-12T04:08:56.152Z,10.97
2022-09-12T04:11:25.568Z,10.95
2022-09-12T04:13:53.650Z,10.94
2022-09-12T04:16:21.612Z,10.93
2022-09-12T04:18:49.621Z,10.85
2022-09-12T04:21:28.077Z,10.85
2022-09-12T04:23:56.040Z,10.84
2022-09-12T04:26:25.519Z,10.82
2022-09-12T04:29:03.347Z,10.85
2022-09-12T04:31:31.175Z,10.85
2022-09-12T04:34:00.446Z,10.80
2022-09-12T04:36:30.019Z,10.81
2022-09-12T04:38:57.860Z,10.81
2022-09-12T04:41:29.503Z,10.79
2022-09-12T04:43:59.224Z,10.74
2022-09-12T04:46:27.537Z,10.79
2022-09-12T04:49:03.592Z,10.78
2022-09-12T04:51:44.332Z,10.73
2022-09-12T04:54:13.936Z,10.67
2022-09-12T04:56:48.789Z,10.71
2022-09-12T04:59:31.379Z,10.77
2022-09-12T05:02:10.996Z,10.77
2022-09-12T05:04:55.075Z,10.75
2022-09-12T05:07:37.263Z,10.73
2022-09-12T05:10:25.633Z,10.71
2022-09-12T05:12:57.294Z,10.75
2022-09-12T05:15:40.994Z,10.73
2022-09-12T05:18:09.070Z,10.73
2022-09-12T05:20:36.871Z,10.68
2022-09-12T05:23:08.008Z,10.70
2022-09-12T05:25:44.247Z,10.71
2022-09-12T05:28:13.446Z,10.70
2022-09-12T05:30:49.544Z,10.77
2022-09-12T05:33:19.195Z,10.81
2022-09-12T05:35:52.954Z,10.78
2022-09-12T05:38:21.033Z,10.90
2022-09-12T05:40:49.753Z,11.06
2022-09-12T05:43:20.271Z,11.40
2022-09-12T05:45:51.663Z,11.41
2022-09-12T05:48:19.593Z,11.50
2022-09-12T05:50:47.356Z,11.57
2022-09-12T05:53:15.631Z,11.66
2022-09-12T05:55:47.030Z,11.86
2022-09-12T05:58:14.907Z,11.84
2022-09-12T06:00:44.048Z,12.04
2022-09-12T06:03:20.419Z,12.17
2022-09-12T06:05:50.686Z,12.29
2022-09-12T06:08:30.932Z,12.39
2022-09-12T06:11:05.700Z,12.51
2022-09-12T06:13:43.049Z,12.81
2022-09-12T06:16:16.143Z,13.09
2022-09-12T06:18:49.216Z,13.37
2022-09-12T06:21:36.979Z,13.70
2022-09-12T06:24:05.278Z,13.83
2022-09-12T06:26:35.019Z,14.02
2022-09-12T06:29:09.113Z,14.02
2022-09-12T06:31:44.974Z,14.27
2022-09-12T06:34:23.579Z,14.23
2022-09-12T06:37:00.253Z,14.33
2022-09-12T06:40:17.775Z,14.62
2022-09-12T06:45:58.027Z,15.41
2022-09-12T06:48:42.122Z,15.45
2022-09-12T06:51:13.428Z,15.73
2022-09-12T06:54:08.745Z,16.05
2022-09-12T06:57:43.781Z,16.73
2022-09-12T07:04:14.848Z,17.66
2022-09-12T07:07:20.504Z,18.11
2022-09-12T07:20:13.827Z,21.43
2022-09-12T07:23:29.258Z,21.49
2022-09-12T07:26:06.917Z,21.66
2022-09-12T07:28:40.559Z,21.30
2022-09-12T07:32:20.133Z,21.08
2022-09-12T07:38:36.504Z,21.80
2022-09-12T07:41:22.762Z,21.72
2022-09-12T07:44:16.834Z,22.50
2022-09-12T07:47:49.930Z,22.06
2022-09-12T07:54:57.041Z,23.35
2022-09-12T07:57:55.906Z,24.18
2022-09-12T08:03:58.601Z,23.38
2022-09-12T08:07:07.703Z,24.48
2022-09-12T08:09:40.208Z,24.52
2022-09-12T08:12:20.328Z,25.02
2022-09-12T08:14:52.440Z,25.61
2022-09-12T08:18:15.426Z,25.73
2022-09-12T08:21:44.029Z,24.47
2022-09-12T08:24:53.189Z,24.30
2022-09-12T08:27:40.903Z,24.64
2022-09-12T08:30:13.395Z,25.40
2022-09-12T08:33:10.988Z,24.94
2022-09-12T08:35:41.448Z,25.80
2022-09-12T08:38:36.891Z,25.25
2022-09-12T08:41:45.968Z,26.00
2022-09-12T08:45:18.223Z,26.10
2022-09-12T08:48:44.321Z,25.46
2022-09-12T08:51:45.892Z,26.31
2022-09-12T08:55:00.476Z,26.05
2022-09-12T08:58:07.975Z,26.60
2022-09-12T09:01:23.966Z,25.44
2022-09-12T09:07:54.008Z,26.35
2022-09-12T09:10:33.872Z,25.65
2022-09-12T09:13:13.502Z,24.96
2022-09-12T09:16:05.484Z,24.67
2022-09-12T09:18:39.450Z,24.72
2022-09-12T09:21:30.656Z,25.02
2022-09-12T09:24:14.188Z,25.99
2022-09-12T09:26:47.410Z,26.14
2022-09-12T09:29:25.302Z,25.89
2022-09-12T09:31:59.298Z,25.67
2022-09-12T09:34:34.518Z,25.25
2022-09-12T09:40:08.309Z,26.89
2022-09-12T09:43:05.313Z,27.41
2022-09-12T09:46:35.587Z,26.89
2022-09-12T09:49:07.876Z,27.09
2022-09-12T09:51:39.906Z,26.46
2022-09-12T09:54:24.601Z,27.27
2022-09-12T09:57:03.212Z,27.93
2022-09-12T09:59:32.794Z,28.32
2022-09-12T10:02:04.229Z,27.75
2022-09-12T10:04:41.232Z,28.90
2022-09-12T10:07:19.959Z,28.41
2022-09-12T10:10:08.384Z,27.87
2022-09-12T10:13:00.217Z,27.72
2022-09-12T10:15:46.963Z,27.19
2022-09-12T10:18:54.487Z,26.84
2022-09-12T10:27:25.228Z,27.17
2022-09-12T10:30:07.848Z,27.80
2022-09-12T10:32:40.314Z,27.03
2022-09-12T10:35:19.901Z,27.20
2022-09-12T10:37:58.367Z,27.46
2022-09-12T10:40:29.625Z,28.72
2022-09-12T10:43:06.054Z,28.13
2022-09-12T10:45:40.331Z,27.92
2022-09-12T10:48:30.643Z,28.35
2022-09-12T10:51:04.418Z,28.32
2022-09-12T10:53:40.860Z,28.50
2022-09-12T10:56:20.555Z,28.71
2022-09-12T10:59:04.717Z,28.94
2022-09-12T11:01:52.777Z,29.90
2022-09-12T11:04:42.510Z,29.03
2022-09-12T11:07:39.805Z,28.66
2022-09-12T11:10:22.912Z,29.43
2022-09-12T11:12:57.860Z,29.04
2022-09-12T11:15:43.313Z,30.80
2022-09-12T11:18:33.631Z,30.03
2022-09-12T11:21:21.765Z,29.98
2022-09-12T11:24:10.154Z,29.61
2022-09-12T11:26:48.707Z,30.02
2022-09-12T11:29:26.488Z,30.00
2022-09-12T11:32:09.301Z,30.16
2022-09-12T11:34:53.470Z,30.46
2022-09-12T11:37:41.995Z,29.48
2022-09-12T11:40:27.954Z,30.83
2022-09-12T11:43:00.759Z,30.70
2022-09-12T11:45:34.677Z,30.16
2022-09-12T11:48:17.730Z,30.54
2022-09-12T11:50:48.452Z,30.45
2022-09-12T11:53:21.002Z,30.18
2022-09-12T11:55:56.058Z,30.55
2022-09-12T11:58:28.726Z,30.79
2022-09-12T12:01:01.564Z,30.36
2022-09-12T12:03:34.504Z,30.04
2022-09-12T12:06:13.016Z,29.95
2022-09-12T12:08:44.367Z,30.22
2022-09-12T12:11:16.907Z,30.99
2022-09-12T12:13:51.715Z,31.57
2022-09-12T12:16:24.512Z,30.76
2022-09-12T12:18:59.637Z,31.12
2022-09-12T12:21:43.567Z,30.49
2022-09-12T12:24:18.383Z,30.28
2022-09-12T12:27:01.103Z,30.89
2022-09-12T12:29:44.325Z,30.94
2022-09-12T12:32:25.177Z,30.13
2022-09-12T12:35:25.581Z,29.89
2022-09-12T12:37:58.844Z,30.02
2022-09-12T12:40:29.587Z,29.35
2022-09-12T12:43:31.449Z,29.17
2022-09-12T12:46:11.597Z,28.64
2022-09-12T12:49:08.413Z,29.50
2022-09-12T12:51:40.928Z,29.89
2022-09-12T12:54:33.100Z,29.68
2022-09-12T12:57:19.859Z,29.43
2022-09-12T12:59:50.105Z,29.84
2022-09-12T13:02:23.639Z,29.68
2022-09-12T13:04:51.832Z,28.49
2022-09-12T13:07:31.169Z,29.27
2022-09-12T13:10:02.208Z,29.57
2022-09-12T13:12:33.581Z,29.74
2022-09-12T13:15:02.658Z,29.95
2022-09-12T13:17:35.393Z,29.79
2022-09-12T13:20:34.011Z,29.50
2022-09-12T13:23:02.376Z,29.51
2022-09-12T13:25:36.850Z,29.81
2022-09-12T13:28:18.437Z,30.32
2022-09-12T13:30:49.651Z,30.68
2022-09-12T13:33:23.490Z,29.19
2022-09-12T13:36:28.268Z,28.99
2022-09-12T13:39:18.732Z,29.03
2022-09-12T13:42:17.799Z,29.00
2022-09-12T13:44:49.554Z,28.99
2022-09-12T13:47:26.060Z,29.34
2022-09-12T13:49:55.362Z,29.66
2022-09-12T13:52:26.859Z,29.87
2022-09-12T13:54:58.181Z,29.80
2022-09-12T13:57:32.465Z,30.50
2022-09-12T14:00:02.073Z,30.31
2022-09-12T14:02:31.342Z,29.96
2022-09-12T14:05:13.208Z,29.94
2022-09-12T14:07:53.405Z,30.17
2022-09-12T14:10:26.760Z,29.81
2022-09-12T14:12:57.255Z,29.60
2022-09-12T14:15:28.376Z,29.40
2022-09-12T14:18:01.371Z,29.80
2022-09-12T14:20:32.413Z,29.68
2022-09-12T14:23:03.541Z,29.56
2022-09-12T14:25:38.998Z,29.31
2022-09-12T14:28:12.868Z,29.36
2022-09-12T14:30:40.781Z,29.40
2022-09-12T14:33:21.841Z,29.42
2022-09-12T14:35:51.475Z,29.89
2022-09-12T14:38:25.036Z,30.00
2022-09-12T14:41:01.215Z,29.53
2022-09-12T14:43:32.853Z,29.44
2022-09-12T14:46:02.949Z,29.44
2022-09-12T14:48:33.205Z,29.31
2022-09-12T14:51:01.304Z,28.96
2022-09-12T14:53:34.578Z,29.02
2022-09-12T14:56:10.043Z,28.99
2022-09-12T14:58:42.009Z,29.11
2022-09-12T15:01:28.571Z,29.69
2022-09-12T15:03:57.594Z,29.26
2022-09-12T15:06:29.364Z,29.20
2022-09-12T15:08:59.160Z,29.27
2022-09-12T15:11:29.460Z,28.97
2022-09-12T15:13:58.806Z,28.98
2022-09-12T15:16:27.777Z,28.10
2022-09-12T15:18:55.767Z,28.27
2022-09-12T15:21:23.965Z,28.36
2022-09-12T15:23:53.803Z,28.27
2022-09-12T15:26:24.007Z,28.43
2022-09-12T15:28:54.548Z,28.55
2022-09-12T15:31:26.930Z,28.91
2022-09-12T15:34:04.394Z,28.80
2022-09-12T15:36:38.190Z,28.98
2022-09-12T15:39:09.717Z,29.00
2022-09-12T15:41:39.482Z,28.59
2022-09-12T15:44:08.892Z,28.28
2022-09-12T15:46:41.613Z,28.18
2022-09-12T15:49:10.392Z,28.24
2022-09-12T15:51:38.240Z,27.93
2022-09-12T15:54:07.653Z,27.82
2022-09-12T15:56:35.730Z,27.73
2022-09-12T15:59:03.458Z,27.70
2022-09-12T16:01:31.160Z,27.72
2022-09-12T16:04:00.228Z,27.83
2022-09-12T16:06:36.821Z,27.92
2022-09-12T16:09:05.319Z,28.06
2022-09-12T16:11:36.434Z,27.97
2022-09-12T16:14:04.205Z,27.85
2022-09-12T16:16:34.366Z,27.98
2022-09-12T16:19:04.898Z,27.99
2022-09-12T16:21:32.914Z,27.92
2022-09-12T16:24:00.611Z,27.84
2022-09-12T16:26:28.422Z,27.66
2022-09-12T16:28:56.938Z,27.43
2022-09-12T16:31:25.075Z,27.41
2022-09-12T16:33:53.329Z,27.24
2022-09-12T16:36:23.479Z,27.16
2022-09-12T16:38:52.687Z,26.96
2022-09-12T16:41:22.585Z,26.91
2022-09-12T16:43:50.331Z,26.90
2022-09-12T16:46:19.971Z,26.52
2022-09-12T16:48:52.424Z,26.40
2022-09-12T16:51:25.810Z,26.25
2022-09-12T16:53:55.076Z,26.26
2022-09-12T16:56:23.625Z,26.16
2022-09-12T16:58:57.368Z,26.01
2022-09-12T17:01:28.897Z,25.95
2022-09-12T17:03:58.947Z,26.00
2022-09-12T17:06:29.667Z,25.85
2022-09-12T17:09:01.700Z,25.71
2022-09-12T17:11:31.680Z,25.27
2022-09-12T17:14:04.968Z,25.02
2022-09-12T17:16:34.887Z,24.92
2022-09-12T17:19:02.651Z,24.69
2022-09-12T17:21:32.426Z,24.40
2022-09-12T17:24:02.269Z,24.22
2022-09-12T17:26:32.702Z,23.80
2022-09-12T17:29:00.794Z,23.77
2022-09-12T17:31:29.155Z,23.42
2022-09-12T17:33:58.980Z,22.67
2022-09-12T17:36:27.589Z,22.33
2022-09-12T17:38:56.973Z,22.12
2022-09-12T17:41:29.571Z,21.88
2022-09-12T17:43:58.932Z,21.49
2022-09-12T17:46:31.041Z,21.29
2022-09-12T17:49:00.919Z,21.11
2022-09-12T17:51:30.745Z,20.78
2022-09-12T17:54:02.703Z,20.70
2022-09-12T17:56:55.991Z,20.50
2022-09-12T17:59:24.991Z,20.41
2022-09-12T18:02:10.524Z,20.40
2022-09-12T18:04:40.076Z,19.99
2022-09-12T18:07:12.228Z,19.80
2022-09-12T18:09:51.273Z,19.72
2022-09-12T18:12:22.006Z,19.56
2022-09-12T18:14:50.042Z,19.38
2022-09-12T18:17:24.867Z,19.28
2022-09-12T18:19:58.406Z,19.24
2022-09-12T18:22:29.677Z,19.10
2022-09-12T18:25:00.420Z,19.00
2022-09-12T18:27:28.281Z,18.95
2022-09-12T18:30:20.479Z,18.80
2022-09-12T18:32:50.196Z,18.74
2022-09-12T18:35:20.071Z,18.55
2022-09-12T18:37:48.936Z,18.47
2022-09-12T18:44:10.768Z,18.20
2022-09-12T18:47:08.531Z,18.17
2022-09-12T19:31:44.153Z,17.01
2022-09-12T19:34:15.580Z,16.95
2022-09-12T19:36:51.513Z,16.90
2022-09-12T19:39:24.518Z,16.87
2022-09-12T19:42:04.870Z,16.82
2022-09-12T19:44:33.264Z,16.79
2022-09-12T19:47:00.710Z,16.72
2022-09-12T19:49:28.503Z,16.70
2022-09-12T19:51:56.589Z,16.56
2022-09-12T19:54:24.406Z,16.47
2022-09-12T19:56:52.071Z,16.44
2022-09-12T19:59:32.952Z,16.45
2022-09-12T20:02:01.022Z,16.41
2022-09-12T20:04:31.051Z,16.32
2022-09-12T20:07:09.880Z,16.19
2022-09-12T20:09:38.020Z,16.24
2022-09-12T20:12:10.131Z,16.25
2022-09-12T20:14:39.444Z,16.13
2022-09-12T20:17:07.415Z,16.10
2022-09-12T20:19:37.750Z,15.97
2022-09-12T20:22:12.014Z,15.92
2022-09-12T20:24:39.760Z,15.94
2022-09-12T20:27:07.886Z,15.92
2022-09-12T20:30:43.838Z,15.89
2022-09-12T20:33:24.989Z,15.87
2022-09-12T20:35:55.418Z,15.82
2022-09-12T20:39:00.388Z,15.76
2022-09-12T20:41:49.111Z,15.76
2022-09-12T20:47:55.669Z,15.60
2022-09-12T20:51:27.387Z,15.56
2022-09-12T20:55:14.297Z,15.54
2022-09-12T20:58:44.077Z,15.44
2022-09-12T21:01:24.751Z,15.52
2022-09-12T21:03:53.188Z,15.44
2022-09-12T21:06:22.210Z,15.35
2022-09-12T21:08:55.534Z,15.28
2022-09-12T21:11:37.341Z,15.24
2022-09-12T21:14:36.990Z,15.21
2022-09-12T21:17:12.042Z,15.22
2022-09-12T21:19:42.224Z,15.16
2022-09-12T21:22:10.734Z,15.07
2022-09-12T21:24:38.498Z,15.05
2022-09-12T21:27:07.783Z,15.04
2022-09-12T21:29:54.608Z,15.00
2022-09-12T21:32:22.728Z,14.91
2022-09-12T21:35:07.317Z,14.95
2022-09-12T21:37:42.726Z,14.94
2022-09-12T21:40:11.274Z,14.99
2022-09-12T21:42:39.094Z,15.09
2022-09-12T21:45:09.496Z,15.01
2022-09-12T21:47:39.105Z,15.00
2022-09-12T21:50:08.433Z,14.95
2022-09-12T21:52:37.264Z,14.99
2022-09-12T21:55:05.979Z,14.92
2022-09-12T21:57:35.192Z,14.87
2022-09-12T22:00:06.400Z,14.89
2022-09-12T22:02:36.010Z,14.88
2022-09-12T22:05:16.191Z,14.87
2022-09-12T22:07:48.949Z,14.76
2022-09-12T22:10:20.037Z,14.80
2022-09-12T22:12:51.154Z,14.78
2022-09-12T22:15:41.644Z,14.69
2022-09-12T22:18:11.448Z,14.68
2022-09-12T22:20:39.399Z,14.65
2022-09-12T22:23:25.366Z,14.58
2022-09-12T22:25:55.929Z,14.58
2022-09-12T22:28:25.086Z,14.56
2022-09-12T22:30:54.397Z,14.57
2022-09-12T22:33:32.771Z,14.55
2022-09-12T22:36:05.882Z,14.47
2022-09-12T22:38:37.404Z,14.42
2022-09-12T22:41:09.497Z,14.42
2022-09-12T22:43:38.505Z,14.36
2022-09-12T22:46:07.315Z,14.33
2022-09-12T22:48:37.379Z,14.31
2022-09-12T22:51:09.711Z,14.28
2022-09-12T22:53:45.001Z,14.26
2022-09-12T22:56:12.871Z,14.27
2022-09-12T22:58:41.949Z,14.21
2022-09-12T23:01:10.384Z,14.15
2022-09-12T23:03:42.912Z,14.12
2022-09-12T23:06:11.520Z,14.06
2022-09-12T23:08:49.350Z,14.04
2022-09-12T23:11:23.166Z,13.99
2022-09-12T23:14:00.784Z,13.96
2022-09-12T23:16:32.001Z,13.99
2022-09-12T23:19:22.771Z,13.97
2022-09-12T23:21:50.766Z,13.91
2022-09-12T23:24:25.804Z,13.91
2022-09-12T23:26:58.361Z,13.91
2022-09-12T23:29:26.919Z,13.88
2022-09-12T23:31:55.459Z,13.84
2022-09-12T23:34:32.594Z,13.81
2022-09-12T23:37:01.616Z,13.77
2022-09-12T23:39:29.503Z,13.77
2022-09-12T23:42:26.014Z,13.76
2022-09-12T23:44:53.917Z,13.75
2022-09-12T23:47:39.460Z,13.73
2022-09-12T23:50:25.137Z,13.71
2022-09-12T23:52:55.427Z,13.68
2022-09-12T23:55:23.673Z,13.65
2022-09-12T23:57:51.326Z,13.61
